Time;durP1;ratioP1;P1;durP2;ratioP2;P2;SDS_P1;SDS_P2;PMS_P1;PMS_P2;Temp;Humidity;BMP_temperature;BMP_pressure;BME280_temperature;BME280_humidity;BME280_pressure;Samples;Min_cycle;Max_cycle;Signal;HPM_P1;HPM_P2
2022/04/01 00:01:11;;;;;;;;;;;;;;;-143.90;100.00;55333.63;2093520;28;19921;-60
2022/04/01 00:02:32;;;;;;;;;;;;;;;-143.90;100.00;55353.47;2092941;28;20001;-63
2022/04/01 00:03:53;;;;;;;;;;;;;;;-143.90;100.00;55297.88;2094088;28;19960;-63
2022/04/01 00:05:14;;;;;;;;;;;;;;;-143.90;100.00;55297.88;2092716;28;19924;-63
2022/04/01 00:06:34;;;;;;;;;;;;;;;-143.90;100.00;55353.47;2094051;27;20348;-63
2022/04/01 00:07:55;;;;;;;;;;;;;;;-143.90;100.00;55301.84;2092392;28;20046;-62
2022/04/01 00:09:16;;;;;;;;;;;;;;;-143.90;100.00;55333.63;2091844;28;19989;-63
2022/04/01 00:10:37;;;;;;;;;;;;;;;-143.90;100.00;55333.63;2094290;28;19920;-62
2022/04/01 00:11:57;;;;;;;;;;;;;;;-143.90;100.00;55325.66;2093960;28;19920;-61
2022/04/01 00:13:18;;;;;;;;;;;;;;;-143.90;100.00;55321.69;2093656;28;19990;-63
2022/04/01 00:14:39;;;;;;;;;;;;;;;-143.90;100.00;55321.69;2093552;28;20269;-62
2022/04/01 00:16:00;;;;;;;;;;;;;;;-143.90;100.00;55321.69;2093531;28;19924;-59
2022/04/01 00:17:21;;;;;;;;;;;;;;;-143.90;100.00;55335.59;2092945;28;19924;-63
2022/04/01 00:18:44;;;;;;;;;;;;;;;-143.90;100.00;55317.72;2093991;28;19935;-64
2022/04/01 00:20:05;;;;;;;;;;;;;;;-143.90;100.00;55299.84;2092761;28;19927;-63
2022/04/01 00:21:26;;;;;;;;;;;;;;;-143.90;100.00;55335.59;2093273;28;19921;-64
2022/04/01 00:22:47;;;;;;;;;;;;;;;-143.90;100.00;55317.72;2092226;28;19927;-63
2022/04/01 00:24:08;;;;;;;;;;;;;;;-143.90;100.00;55329.63;2092950;28;19927;-64
2022/04/01 00:25:28;;;;;;;;;;;;;;;-143.90;100.00;55323.69;2093636;28;19955;-62
2022/04/01 00:26:49;;;;;;;;;;;;;;;-143.90;100.00;55355.47;2093153;28;19921;-64
2022/04/01 00:28:10;;;;;;;;;;;;;;;-143.90;100.00;55327.66;2092084;28;19921;-61
2022/04/01 00:29:31;;;;;;;;;;;;;;;-143.90;100.00;55345.53;2082766;28;20048;-63
2022/04/01 00:30:54;;;;;;;;;;;;;;;-143.90;100.00;55357.44;2090091;28;19920;-63
2022/04/01 00:32:15;;;;;;;;;;;;;;;-143.90;100.00;55321.69;2093376;28;19921;-63
2022/04/01 00:33:36;;;;;;;;;;;;;;;-143.90;100.00;55309.78;2083972;28;19928;-63
2022/04/01 00:34:57;;;;;;;;;;;;;;;-143.90;100.00;55297.88;2088093;28;20757;-64
2022/04/01 00:36:17;;;;;;;;;;;;;;;-143.90;100.00;55355.47;2094142;28;20323;-63
2022/04/01 00:37:38;;;;;;;;;;;;;;;-143.90;100.00;55325.66;2091733;28;19924;-62
2022/04/01 00:38:59;;;;;;;;;;;;;;;-143.90;100.00;55349.50;2093738;28;20389;-62
2022/04/01 00:40:21;;;;;;;;;;;;;;;-143.90;100.00;55325.66;2085140;28;20432;-62
2022/04/01 00:41:44;;;;;;;;;;;;;;;-143.90;100.00;55317.72;2091216;28;20020;-62
2022/04/01 00:43:05;;;;;;;;;;;;;;;-143.90;100.00;55309.78;2093191;28;19989;-63
2022/04/01 00:44:27;;;;;;;;;;;;;;;-143.90;100.00;55317.72;2094432;28;19926;-64
2022/04/01 00:45:48;;;;;;;;;;;;;;;-143.90;100.00;55341.56;2092426;28;19924;-62
2022/04/01 00:47:10;;;;;;;;;;;;;;;-143.90;100.00;55319.72;2083453;28;20051;-64
2022/04/01 00:48:30;;;;;;;;;;;;;;;-143.90;100.00;55353.47;2088291;28;19970;-61
2022/04/01 00:49:51;;;;;;;;;;;;;;;-143.90;100.00;55291.91;2084522;28;19928;-64
2022/04/01 00:51:14;;;;;;;;;;;;;;;-143.90;100.00;55333.63;2089928;28;19931;-62
2022/04/01 00:52:36;;;;;;;;;;;;;;;-143.90;100.00;55309.78;2083010;28;19925;-62
2022/04/01 00:53:58;;;;;;;;;;;;;;;-143.90;100.00;55321.69;2089162;28;19921;-62
2022/04/01 00:55:19;;;;;;;;;;;;;;;-143.90;100.00;55305.81;2075184;28;19929;-63
2022/04/01 00:56:40;;;;;;;;;;;;;;;-143.90;100.00;55345.53;2086009;28;20043;-62
2022/04/01 00:58:01;;;;;;;;;;;;;;;-143.90;100.00;55301.84;2091320;28;19928;-64
2022/04/01 00:59:22;;;;;;;;;;;;;;;-143.90;100.00;55343.53;2076100;28;19921;-63
2022/04/01 01:00:43;;;;;;;;;;;;;;;-143.90;100.00;55313.75;2088898;28;19978;-62
2022/04/01 01:02:04;;;;;;;;;;;;;;;-143.90;100.00;55283.97;2094229;28;20378;-63
2022/04/01 01:03:26;;;;;;;;;;;;;;;-143.90;100.00;55293.91;2092441;28;19924;-62
2022/04/01 01:04:47;;;;;;;;;;;;;;;-143.90;100.00;55317.72;2094030;27;20654;-64
2022/04/01 01:06:08;;;;;;;;;;;;;;;-143.90;100.00;55287.94;2084992;28;19920;-62
2022/04/01 01:07:29;;;;;;;;;;;;;;;-143.90;100.00;55341.56;2090551;28;19955;-63
2022/04/01 01:08:49;;;;;;;;;;;;;;;-143.90;100.00;55337.59;2092200;28;19920;-64
2022/04/01 01:10:10;;;;;;;;;;;;;;;-143.90;100.00;55305.81;2094320;28;20058;-62
2022/04/01 01:11:32;;;;;;;;;;;;;;;-143.90;100.00;55278.00;2092676;28;20781;-63
2022/04/01 01:12:54;;;;;;;;;;;;;;;-143.90;100.00;55301.84;2083913;28;19956;-62
2022/04/01 01:14:15;;;;;;;;;;;;;;;-143.90;100.00;55323.69;2090845;28;19924;-62
2022/04/01 01:15:37;;;;;;;;;;;;;;;-143.90;100.00;55325.66;2084662;28;19933;-62
2022/04/01 01:16:58;;;;;;;;;;;;;;;-143.90;100.00;55341.56;2079686;28;19920;-62
2022/04/01 01:18:19;;;;;;;;;;;;;;;-143.90;100.00;55329.63;2088046;28;19967;-64
2022/04/01 01:19:40;;;;;;;;;;;;;;;-143.90;100.00;55305.81;2083425;28;20390;-62
2022/04/01 01:21:01;;;;;;;;;;;;;;;-143.90;100.00;55305.81;2090126;28;19969;-63
2022/04/01 01:22:21;;;;;;;;;;;;;;;-143.90;100.00;55311.78;2084024;28;20020;-67
2022/04/01 01:23:42;;;;;;;;;;;;;;;-143.90;100.00;55309.78;2089493;28;19920;-63
2022/04/01 01:25:03;;;;;;;;;;;;;;;-143.90;100.00;55329.63;2082991;28;20072;-61
2022/04/01 01:26:24;;;;;;;;;;;;;;;-143.90;100.00;55337.59;2080966;28;20339;-62
2022/04/01 01:27:45;;;;;;;;;;;;;;;-143.90;100.00;55365.38;2088734;28;19931;-63
2022/04/01 01:29:08;;;;;;;;;;;;;;;-143.90;100.00;55295.88;2083089;28;19928;-63
2022/04/01 01:30:29;;;;;;;;;;;;;;;-143.90;100.00;55321.69;2089410;28;20716;-63
2022/04/01 01:31:50;;;;;;;;;;;;;;;-143.90;100.00;55355.47;2094189;28;19927;-61
2022/04/01 01:33:11;;;;;;;;;;;;;;;-143.90;100.00;55349.50;2083384;28;19974;-62
2022/04/01 01:34:35;;;;;;;;;;;;;;;-143.90;100.00;55337.59;2089095;28;19920;-62
2022/04/01 01:35:56;;;;;;;;;;;;;;;-143.90;100.00;55357.44;2092784;28;19935;-62
2022/04/01 01:37:17;;;;;;;;;;;;;;;-143.90;100.00;55319.72;2092628;28;20358;-63
2022/04/01 01:38:38;;;;;;;;;;;;;;;-143.90;100.00;55315.75;2093819;28;20039;-63
2022/04/01 01:39:59;;;;;;;;;;;;;;;-143.90;100.00;55317.72;2093334;28;20307;-63
2022/04/01 01:41:20;;;;;;;;;;;;;;;-143.90;100.00;55313.75;2082466;28;19924;-63
2022/04/01 01:42:41;;;;;;;;;;;;;;;-143.90;100.00;55349.50;2081879;28;19925;-64
2022/04/01 01:44:04;;;;;;;;;;;;;;;-143.90;100.00;55325.66;2081614;28;20391;-62
2022/04/01 01:45:29;;;;;;;;;;;;;;;-143.90;100.00;55325.66;2089674;28;19960;-63
2022/04/01 01:46:50;;;;;;;;;;;;;;;-143.90;100.00;55337.59;2092855;28;21603;-63
2022/04/01 01:48:11;;;;;;;;;;;;;;;-143.90;100.00;55311.78;2092580;28;19931;-63
2022/04/01 01:49:31;;;;;;;;;;;;;;;-143.90;100.00;55321.69;2084072;28;19959;-63
2022/04/01 01:55:50;;;;;;;;;;;;;;;-143.90;100.00;55309.78;2088750;28;19924;-60
2022/04/01 01:57:13;;;;;;;;;;;;;;;-143.90;100.00;55321.69;2082974;28;20447;-63
2022/04/01 01:58:34;;;;;;;;;;;;;;;-143.90;100.00;55351.47;2079756;28;19921;-61
2022/04/01 01:59:55;;;;;;;;;;;;;;;-143.90;100.00;55351.47;2080507;28;19924;-62
2022/04/01 02:01:16;;;;;;;;;;;;;;;-143.90;100.00;55307.78;2078850;28;20287;-61
2022/04/01 02:02:37;;;;;;;;;;;;;;;-143.90;100.00;55321.69;2086564;28;19935;-63
2022/04/01 02:04:01;;;;;;;;;;;;;;;-143.90;100.00;55307.78;2079318;28;19972;-63
2022/04/01 02:05:22;;;;;;;;;;;;;;;-143.90;100.00;55345.53;2085475;28;20015;-62
2022/04/01 02:06:42;;;;;;;;;;;;;;;-143.90;100.00;55361.41;2091464;28;19921;-61
2022/04/01 02:08:05;;;;;;;;;;;;;;;-143.90;100.00;55335.59;2083310;28;19924;-62
2022/04/01 02:09:27;;;;;;;;;;;;;;;-143.90;100.00;55345.53;2081066;28;20453;-61
2022/04/01 02:10:47;;;;;;;;;;;;;;;-143.90;100.00;55295.88;2090001;28;19920;-61
2022/04/01 02:12:08;;;;;;;;;;;;;;;-143.90;100.00;55333.63;2086030;28;20468;-61
2022/04/01 02:13:29;;;;;;;;;;;;;;;-143.90;100.00;55361.41;2082230;28;19920;-62
2022/04/01 02:14:50;;;;;;;;;;;;;;;-143.90;100.00;55369.34;2091785;28;19921;-61
2022/04/01 02:16:11;;;;;;;;;;;;;;;-143.90;100.00;55353.47;2091946;28;19924;-62
2022/04/01 02:17:32;;;;;;;;;;;;;;;-143.90;100.00;55349.50;2091700;28;19924;-62
2022/04/01 02:18:53;;;;;;;;;;;;;;;-143.90;100.00;55305.81;2083558;28;19943;-63
2022/04/01 02:20:13;;;;;;;;;;;;;;;-143.90;100.00;55331.63;2088895;28;19920;-63
2022/04/01 02:21:34;;;;;;;;;;;;;;;-143.90;100.00;55305.81;2092339;28;19932;-63
2022/04/01 02:22:55;;;;;;;;;;;;;;;-143.90;100.00;55353.47;2083924;28;19921;-63
2022/04/01 02:24:17;;;;;;;;;;;;;;;-143.90;100.00;55357.44;2090308;28;20521;-62
2022/04/01 02:25:40;;;;;;;;;;;;;;;-143.90;100.00;55349.50;2076774;28;19928;-62
2022/04/01 02:27:01;;;;;;;;;;;;;;;-143.90;100.00;55313.75;2072180;28;19921;-62
2022/04/01 02:28:22;;;;;;;;;;;;;;;-143.90;100.00;55351.47;2073780;28;19921;-63
2022/04/01 02:29:44;;;;;;;;;;;;;;;-143.90;100.00;55301.84;2072395;28;19953;-65
2022/04/01 02:31:08;;;;;;;;;;;;;;;-143.90;100.00;55301.84;2075305;28;19921;-61
2022/04/01 02:32:47;;;;;;;;;;;;;;;-143.90;100.00;55349.50;2076321;28;19928;-63
2022/04/01 02:34:28;;;;;;;;;;;;;;;-143.90;100.00;55357.44;2076866;28;20401;-61
2022/04/01 02:35:50;;;;;;;;;;;;;;;-143.90;100.00;55345.53;2066231;28;19965;-63
2022/04/01 02:37:11;;;;;;;;;;;;;;;-143.90;100.00;55317.72;2072109;28;20036;-62
2022/04/01 02:38:32;;;;;;;;;;;;;;;-143.90;100.00;55349.50;2068328;28;20769;-63
2022/04/01 02:39:53;;;;;;;;;;;;;;;-143.90;100.00;55341.56;2075929;28;19921;-61
2022/04/01 02:41:17;;;;;;;;;;;;;;;-143.90;100.00;55341.56;2067061;28;19921;-64
2022/04/01 02:42:38;;;;;;;;;;;;;;;-143.90;100.00;55307.78;2072396;28;19939;-63
2022/04/01 02:44:09;;;;;;;;;;;;;;;-143.90;100.00;55347.50;2066122;28;19937;-63
2022/04/01 02:45:31;;;;;;;;;;;;;;;-143.90;100.00;55333.63;2072262;28;19921;-62
2022/04/01 02:46:52;;;;;;;;;;;;;;;-143.90;100.00;55341.56;2067134;28;19997;-62
2022/04/01 02:48:14;;;;;;;;;;;;;;;-143.90;100.00;55311.78;2073213;28;20400;-63
2022/04/01 02:49:55;;;;;;;;;;;;;;;-143.90;100.00;55321.69;2076784;28;19964;-63
2022/04/01 02:51:15;;;;;;;;;;;;;;;-143.90;100.00;55329.63;2068220;28;19936;-62
2022/04/01 02:52:37;;;;;;;;;;;;;;;-143.90;100.00;55321.69;2071606;28;19925;-62
2022/04/01 02:53:59;;;;;;;;;;;;;;;-143.90;100.00;55321.69;2074067;28;19925;-61
2022/04/01 02:55:21;;;;;;;;;;;;;;;-143.90;100.00;55311.78;2066305;28;20012;-62
2022/04/01 02:56:43;;;;;;;;;;;;;;;-143.90;100.00;55297.88;2065408;28;19926;-63
2022/04/01 02:58:05;;;;;;;;;;;;;;;-143.90;100.00;55371.34;2072508;28;19936;-62
2022/04/01 02:59:26;;;;;;;;;;;;;;;-143.90;100.00;55339.56;2068037;28;19922;-62
2022/04/01 03:00:48;;;;;;;;;;;;;;;-143.90;100.00;55337.59;2064138;28;19935;-62
2022/04/01 03:02:09;;;;;;;;;;;;;;;-143.90;100.00;55333.63;2069255;28;19922;-63
2022/04/01 03:03:31;;;;;;;;;;;;;;;-143.90;100.00;55349.50;2064421;28;20385;-62
2022/04/01 03:04:53;;;;;;;;;;;;;;;-143.90;100.00;55329.63;2063908;28;19921;-62
2022/04/01 03:06:15;;;;;;;;;;;;;;;-143.90;100.00;55331.63;2065464;28;20448;-62
2022/04/01 03:07:36;;;;;;;;;;;;;;;-143.90;100.00;55315.75;2065942;28;20325;-62
2022/04/01 03:08:57;;;;;;;;;;;;;;;-143.90;100.00;55341.56;2065939;28;19999;-63
2022/04/01 03:10:18;;;;;;;;;;;;;;;-143.90;100.00;55317.72;2072121;28;20024;-63
2022/04/01 03:11:39;;;;;;;;;;;;;;;-143.90;100.00;55317.72;2063798;28;19928;-62
2022/04/01 03:13:04;;;;;;;;;;;;;;;-143.90;100.00;55307.78;2064721;28;20329;-63
2022/04/01 03:14:57;;;;;;;;;;;;;;;-143.90;100.00;55305.81;2052045;28;19941;-62
2022/04/01 03:16:44;;;;;;;;;;;;;;;-143.90;100.00;55327.66;2073802;28;19948;-63
2022/04/01 03:18:05;;;;;;;;;;;;;;;-143.90;100.00;55333.63;2067454;28;20029;-61
2022/04/01 03:19:31;;;;;;;;;;;;;;;-143.90;100.00;55309.78;2064296;28;19974;-62
2022/04/01 03:20:52;;;;;;;;;;;;;;;-143.90;100.00;55339.56;2065849;28;19941;-62
2022/04/01 03:22:13;;;;;;;;;;;;;;;-143.90;100.00;55339.56;2065507;28;19932;-61
2022/04/01 03:23:37;;;;;;;;;;;;;;;-143.90;100.00;55289.94;2059547;28;19926;-61
2022/04/01 03:24:58;;;;;;;;;;;;;;;-143.90;100.00;55329.63;2063008;28;19921;-61
2022/04/01 03:26:22;;;;;;;;;;;;;;;-143.90;100.00;55333.63;2079248;28;19928;-61
2022/04/01 03:27:52;;;;;;;;;;;;;;;-143.90;100.00;55333.63;2073918;28;19941;-62
2022/04/01 03:29:13;;;;;;;;;;;;;;;-143.90;100.00;55325.66;2066667;28;19921;-61
2022/04/01 03:30:34;;;;;;;;;;;;;;;-143.90;100.00;55333.63;2072671;28;20657;-62
2022/04/01 03:31:55;;;;;;;;;;;;;;;-143.90;100.00;55325.66;2071248;28;19925;-62
2022/04/01 03:33:17;;;;;;;;;;;;;;;-143.90;100.00;55309.78;2072593;28;19928;-61
2022/04/01 03:34:39;;;;;;;;;;;;;;;-143.90;100.00;55345.53;2072353;28;19921;-60
2022/04/01 03:35:59;;;;;;;;;;;;;;;-143.90;100.00;55347.50;2070625;28;19940;-61
2022/04/01 03:37:23;;;;;;;;;;;;;;;-143.90;100.00;55345.53;2081177;28;20011;-60
2022/04/01 03:38:44;;;;;;;;;;;;;;;-143.90;100.00;55331.63;2084017;28;19928;-60
2022/04/01 03:40:16;;;;;;;;;;;;;;;-143.90;100.00;55377.28;2076636;28;19928;-62
2022/04/01 03:41:37;;;;;;;;;;;;;;;-143.90;100.00;55317.72;2070899;28;20027;-61
2022/04/01 03:42:59;;;;;;;;;;;;;;;-143.90;100.00;55321.69;2080350;28;19920;-61
2022/04/01 03:44:24;;;;;;;;;;;;;;;-143.90;100.00;55321.69;2073601;28;20394;-61
2022/04/01 03:45:50;;;;;;;;;;;;;;;-143.90;100.00;55337.59;2071534;28;19928;-63
2022/04/01 03:47:18;;;;;;;;;;;;;;;-143.90;100.00;55353.47;2081818;28;19925;-62
2022/04/01 03:48:39;;;;;;;;;;;;;;;-143.90;100.00;55355.47;2068210;28;19925;-60
2022/04/01 03:50:02;;;;;;;;;;;;;;;-143.90;100.00;55305.81;2072099;28;20068;-61
2022/04/01 03:51:25;;;;;;;;;;;;;;;-143.90;100.00;55317.72;2081293;28;20300;-60
2022/04/01 03:52:47;;;;;;;;;;;;;;;-143.90;100.00;55337.59;2075791;28;19975;-62
2022/04/01 03:54:10;;;;;;;;;;;;;;;-143.90;100.00;55309.78;2074547;28;19921;-62
2022/04/01 03:55:49;;;;;;;;;;;;;;;-143.90;100.00;55341.56;2084319;28;19935;-62
2022/04/01 03:57:35;;;;;;;;;;;;;;;-143.90;100.00;55335.59;2086620;28;19921;-63
2022/04/01 03:59:15;;;;;;;;;;;;;;;-143.90;100.00;55329.63;2085079;28;19925;-60
2022/04/01 04:00:55;;;;;;;;;;;;;;;-143.90;100.00;55345.53;2085151;28;20331;-62
2022/04/01 04:02:16;;;;;;;;;;;;;;;-143.90;100.00;55309.78;2073950;28;19921;-63
2022/04/01 04:03:36;;;;;;;;;;;;;;;-143.90;100.00;55337.59;2069714;28;20400;-63
2022/04/01 04:04:58;;;;;;;;;;;;;;;-143.90;100.00;55309.78;2065295;28;19995;-64
2022/04/01 04:06:19;;;;;;;;;;;;;;;-143.90;100.00;55365.38;2072386;28;19921;-63
2022/04/01 04:07:40;;;;;;;;;;;;;;;-143.90;100.00;55353.47;2073673;28;19928;-61
2022/04/01 04:09:05;;;;;;;;;;;;;;;-143.90;100.00;55357.44;2075772;28;19932;-63
2022/04/01 04:10:27;;;;;;;;;;;;;;;-143.90;100.00;55341.56;2073530;28;19988;-62
2022/04/01 04:12:13;;;;;;;;;;;;;;;-143.90;100.00;55371.34;2083629;28;19959;-63
2022/04/01 04:13:36;;;;;;;;;;;;;;;-143.90;100.00;55381.28;2069399;28;19975;-64
2022/04/01 04:14:58;;;;;;;;;;;;;;;-143.90;100.00;55365.38;2068742;28;19956;-61
2022/04/01 04:16:24;;;;;;;;;;;;;;;-143.90;100.00;55309.78;2070253;28;19926;-63
2022/04/01 04:17:45;;;;;;;;;;;;;;;-143.90;100.00;55323.69;2080301;28;20763;-64
2022/04/01 04:19:07;;;;;;;;;;;;;;;-143.90;100.00;55349.50;2075863;28;19956;-60
2022/04/01 04:20:28;;;;;;;;;;;;;;;-143.90;100.00;55309.78;2075045;28;20286;-63
2022/04/01 04:21:49;;;;;;;;;;;;;;;-143.90;100.00;55353.47;2074549;28;19928;-63
2022/04/01 04:23:16;;;;;;;;;;;;;;;-143.90;100.00;55349.50;2073001;28;19947;-64
2022/04/01 04:24:42;;;;;;;;;;;;;;;-143.90;100.00;55345.53;2081567;28;19963;-63
2022/04/01 04:26:03;;;;;;;;;;;;;;;-143.90;100.00;55349.50;2075136;28;19932;-63
2022/04/01 04:27:27;;;;;;;;;;;;;;;-143.90;100.00;55309.78;2073921;28;20485;-62
2022/04/01 04:28:50;;;;;;;;;;;;;;;-143.90;100.00;55349.50;2077184;28;20011;-62
2022/04/01 04:30:28;;;;;;;;;;;;;;;-143.90;100.00;55323.69;2073625;28;19955;-62
2022/04/01 04:32:09;;;;;;;;;;;;;;;-143.90;100.00;55353.47;2085461;28;20470;-61
2022/04/01 04:33:31;;;;;;;;;;;;;;;-143.90;100.00;55317.72;2069706;28;19921;-62
2022/04/01 04:34:54;;;;;;;;;;;;;;;-143.90;100.00;55297.88;2079421;28;20408;-63
2022/04/01 04:36:15;;;;;;;;;;;;;;;-143.90;100.00;55369.34;2076323;28;20806;-63
2022/04/01 04:37:48;;;;;;;;;;;;;;;-143.90;100.00;55351.47;2075378;28;19920;-62
2022/04/01 04:39:16;;;;;;;;;;;;;;;-143.90;100.00;55339.56;2071271;28;19991;-62
2022/04/01 04:40:37;;;;;;;;;;;;;;;-143.90;100.00;55353.47;2080479;28;19924;-63
2022/04/01 04:42:07;;;;;;;;;;;;;;;-143.90;100.00;55349.50;2075841;28;19928;-62
2022/04/01 04:43:28;;;;;;;;;;;;;;;-143.90;100.00;55351.47;2075310;28;20414;-63
2022/04/01 04:44:49;;;;;;;;;;;;;;;-143.90;100.00;55305.81;2069668;28;19967;-63
2022/04/01 04:46:12;;;;;;;;;;;;;;;-143.90;100.00;55345.53;2080759;28;20002;-63
2022/04/01 04:47:33;;;;;;;;;;;;;;;-143.90;100.00;55335.59;2074572;28;20008;-62
2022/04/01 04:48:54;;;;;;;;;;;;;;;-143.90;100.00;55329.63;2072122;28;20003;-63
2022/04/01 04:50:18;;;;;;;;;;;;;;;-143.90;100.00;55349.50;2072408;28;20408;-63
2022/04/01 04:51:40;;;;;;;;;;;;;;;-143.90;100.00;55337.59;2072341;28;20111;-62
2022/04/01 04:53:14;;;;;;;;;;;;;;;-143.90;100.00;55341.56;2076513;28;19924;-62
2022/04/01 04:54:38;;;;;;;;;;;;;;;-143.90;100.00;55377.28;2074525;28;20015;-62
2022/04/01 04:56:19;;;;;;;;;;;;;;;-143.90;100.00;55353.47;2075358;28;19932;-62
2022/04/01 04:57:39;;;;;;;;;;;;;;;-143.90;100.00;55345.53;2069235;28;19964;-61
2022/04/01 04:59:01;;;;;;;;;;;;;;;-143.90;100.00;55313.75;2074061;28;19934;-62
2022/04/01 05:00:22;;;;;;;;;;;;;;;-143.90;100.00;55373.31;2067485;28;19929;-63
2022/04/01 05:01:51;;;;;;;;;;;;;;;-143.90;100.00;55365.38;2082278;28;19928;-62
2022/04/01 05:03:12;;;;;;;;;;;;;;;-143.90;100.00;55353.47;2080040;28;19921;-62
2022/04/01 05:04:39;;;;;;;;;;;;;;;-143.90;100.00;55345.53;2081537;28;20678;-62
2022/04/01 05:06:01;;;;;;;;;;;;;;;-143.90;100.00;55345.53;2076449;28;20807;-62
2022/04/01 05:07:27;;;;;;;;;;;;;;;-143.90;100.00;55321.69;2072697;28;20377;-65
2022/04/01 05:09:15;;;;;;;;;;;;;;;-143.90;100.00;55319.72;2083686;28;19925;-63
2022/04/01 05:10:42;;;;;;;;;;;;;;;-143.90;100.00;55349.50;2067713;28;19921;-64
2022/04/01 05:12:12;;;;;;;;;;;;;;;-143.90;100.00;55305.81;2079868;28;20364;-63
2022/04/01 05:13:59;;;;;;;;;;;;;;;-143.90;100.00;55345.53;2068769;28;20367;-63
2022/04/01 05:15:24;;;;;;;;;;;;;;;-143.90;100.00;55351.47;2084116;28;20019;-64
2022/04/01 05:17:04;;;;;;;;;;;;;;;-143.90;100.00;55361.41;2077970;28;19921;-62
2022/04/01 05:18:52;;;;;;;;;;;;;;;-143.90;100.00;55345.53;2081785;28;19936;-62
2022/04/01 05:20:15;;;;;;;;;;;;;;;-143.90;100.00;55305.81;2059354;28;19986;-62
2022/04/01 05:21:38;;;;;;;;;;;;;;;-143.90;100.00;55337.59;2079514;28;19932;-61
2022/04/01 05:23:22;;;;;;;;;;;;;;;-143.90;100.00;55327.66;2084756;28;19923;-62
2022/04/01 05:24:51;;;;;;;;;;;;;;;-143.90;100.00;55341.56;2052844;28;19921;-62
2022/04/01 05:26:13;;;;;;;;;;;;;;;-143.90;100.00;55333.63;2074479;28;19929;-62
2022/04/01 05:27:53;;;;;;;;;;;;;;;-143.90;100.00;55351.47;2080127;28;19966;-60
2022/04/01 05:29:26;;;;;;;;;;;;;;;-143.90;100.00;55369.34;2074374;28;20051;-62
2022/04/01 05:30:50;;;;;;;;;;;;;;;-143.90;100.00;55337.59;2072639;28;19921;-62
2022/04/01 05:32:11;;;;;;;;;;;;;;;-143.90;100.00;55337.59;2081800;28;20110;-63
2022/04/01 05:33:41;;;;;;;;;;;;;;;-143.90;100.00;55321.69;2074654;28;19925;-62
2022/04/01 05:35:07;;;;;;;;;;;;;;;-143.90;100.00;55327.66;2072483;28;19928;-62
2022/04/01 05:36:28;;;;;;;;;;;;;;;-143.90;100.00;55317.72;2068753;28;19921;-63
2022/04/01 05:37:49;;;;;;;;;;;;;;;-143.90;100.00;55347.50;2078608;28;19988;-63
2022/04/01 05:39:13;;;;;;;;;;;;;;;-143.90;100.00;55341.56;2068562;28;20866;-61
2022/04/01 05:40:38;;;;;;;;;;;;;;;-143.90;100.00;55345.53;2073964;28;19921;-62
2022/04/01 05:42:00;;;;;;;;;;;;;;;-143.90;100.00;55345.53;2073922;28;19924;-60
2022/04/01 05:43:25;;;;;;;;;;;;;;;-143.90;100.00;55333.63;2071446;28;19929;-61
2022/04/01 05:45:04;;;;;;;;;;;;;;;-143.90;100.00;55349.50;2081306;28;20402;-60
2022/04/01 05:46:26;;;;;;;;;;;;;;;-143.90;100.00;55333.63;2075089;28;19976;-63
2022/04/01 05:47:50;;;;;;;;;;;;;;;-143.90;100.00;55309.78;2075233;28;20492;-64
2022/04/01 05:49:12;;;;;;;;;;;;;;;-143.90;100.00;55337.59;2070208;28;19921;-63
2022/04/01 05:50:33;;;;;;;;;;;;;;;-143.90;100.00;55349.50;2072694;28;19922;-64
2022/04/01 05:51:54;;;;;;;;;;;;;;;-143.90;100.00;55343.53;2076183;28;19921;-62
2022/04/01 05:53:15;;;;;;;;;;;;;;;-143.90;100.00;55309.78;2069414;28;19921;-63
2022/04/01 05:54:42;;;;;;;;;;;;;;;-143.90;100.00;55345.53;2061979;28;19961;-62
2022/04/01 05:56:03;;;;;;;;;;;;;;;-143.90;100.00;55365.38;2069417;28;19921;-64
2022/04/01 05:57:25;;;;;;;;;;;;;;;-143.90;100.00;55317.72;2070180;28;20015;-61
2022/04/01 05:58:48;;;;;;;;;;;;;;;-143.90;100.00;55333.63;2069151;28;19921;-62
2022/04/01 06:00:12;;;;;;;;;;;;;;;-143.90;100.00;55325.66;2081015;28;20161;-61
2022/04/01 06:01:44;;;;;;;;;;;;;;;-143.90;100.00;55349.50;2082834;28;20468;-62
2022/04/01 06:03:22;;;;;;;;;;;;;;;-143.90;100.00;55357.44;2067830;28;19932;-62
2022/04/01 06:05:01;;;;;;;;;;;;;;;-143.90;100.00;55349.50;2070223;28;19929;-63
2022/04/01 06:06:31;;;;;;;;;;;;;;;-143.90;100.00;55325.66;2075424;28;20836;-63
2022/04/01 06:08:02;;;;;;;;;;;;;;;-143.90;100.00;55317.72;2075011;28;19925;-62
2022/04/01 06:09:26;;;;;;;;;;;;;;;-143.90;100.00;55301.84;2075115;28;20468;-60
2022/04/01 06:11:18;;;;;;;;;;;;;;;-143.90;100.00;55355.47;2083119;28;19985;-61
2022/04/01 06:13:11;;;;;;;;;;;;;;;-143.90;100.00;55305.81;2081678;28;20373;-62
2022/04/01 06:14:55;;;;;;;;;;;;;;;-143.90;100.00;55317.72;2082591;28;19928;-64
2022/04/01 06:16:41;;;;;;;;;;;;;;;-143.90;100.00;55327.66;2083403;28;20367;-63
2022/04/01 06:18:28;;;;;;;;;;;;;;;-143.90;100.00;55337.59;2067310;28;19925;-63
2022/04/01 06:19:51;;;;;;;;;;;;;;;-143.90;100.00;55337.59;2081709;28;19921;-64
2022/04/01 06:21:15;;;;;;;;;;;;;;;-143.90;100.00;55351.47;2076406;28;19917;-63
2022/04/01 06:22:40;;;;;;;;;;;;;;;-143.90;100.00;55373.31;2081323;28;19982;-62
2022/04/01 06:24:09;;;;;;;;;;;;;;;-143.90;100.00;55341.56;2075758;28;19964;-62
2022/04/01 06:25:34;;;;;;;;;;;;;;;-143.90;100.00;55357.44;2081354;28;19917;-62
2022/04/01 06:26:57;;;;;;;;;;;;;;;-143.90;100.00;55345.53;2065967;28;19930;-61
2022/04/01 06:28:25;;;;;;;;;;;;;;;-143.90;100.00;55341.56;2069557;28;20393;-61
2022/04/01 06:30:05;;;;;;;;;;;;;;;-143.90;100.00;55317.72;2069822;28;19921;-63
2022/04/01 06:31:26;;;;;;;;;;;;;;;-143.90;100.00;55353.47;2074693;28;19924;-62
2022/04/01 06:32:49;;;;;;;;;;;;;;;-143.90;100.00;55333.63;2071974;28;20051;-63
2022/04/01 06:34:23;;;;;;;;;;;;;;;-143.90;100.00;55329.63;2081607;28;19921;-63
2022/04/01 06:36:18;;;;;;;;;;;;;;;-143.90;100.00;55323.69;2073710;28;19952;-61
2022/04/01 06:37:42;;;;;;;;;;;;;;;-143.90;100.00;55351.47;2080576;28;19927;-62
2022/04/01 06:39:10;;;;;;;;;;;;;;;-143.90;100.00;55365.38;2067317;28;20600;-62
2022/04/01 06:40:38;;;;;;;;;;;;;;;-143.90;100.00;55365.38;2074898;28;20095;-62
2022/04/01 06:41:59;;;;;;;;;;;;;;;-143.90;100.00;55367.38;2081345;28;20029;-62
2022/04/01 06:43:38;;;;;;;;;;;;;;;-143.90;100.00;55345.53;2083108;28;20377;-63
2022/04/01 06:45:37;;;;;;;;;;;;;;;-143.90;100.00;55339.56;2083282;28;19916;-62
2022/04/01 06:47:17;;;;;;;;;;;;;;;-143.90;100.00;55377.28;2083123;28;19924;-60
2022/04/01 06:48:38;;;;;;;;;;;;;;;-143.90;100.00;55329.63;2074727;28;19936;-60
2022/04/01 06:50:20;;;;;;;;;;;;;;;-143.90;100.00;55347.50;2082653;28;19959;-62
2022/04/01 06:52:02;;;;;;;;;;;;;;;-143.90;100.00;55349.50;2083550;28;19995;-61
2022/04/01 06:53:41;;;;;;;;;;;;;;;-143.90;100.00;55381.28;2074890;28;20522;-62
2022/04/01 06:55:21;;;;;;;;;;;;;;;-143.90;100.00;55349.50;2082790;28;19920;-62
2022/04/01 06:57:05;;;;;;;;;;;;;;;-143.90;100.00;55319.72;2085615;28;19972;-63
2022/04/01 06:58:45;;;;;;;;;;;;;;;-143.90;100.00;55307.78;2068738;28;19922;-62
2022/04/01 07:00:11;;;;;;;;;;;;;;;-143.90;100.00;55341.56;2071298;28;19927;-62
2022/04/01 07:01:34;;;;;;;;;;;;;;;-143.90;100.00;55305.81;2082208;28;20031;-62
2022/04/01 07:02:54;;;;;;;;;;;;;;;-143.90;100.00;55343.53;2085501;28;19924;-62
2022/04/01 07:04:15;;;;;;;;;;;;;;;-143.90;100.00;55333.63;2078098;28;19939;-61
2022/04/01 07:05:37;;;;;;;;;;;;;;;-143.90;100.00;55333.63;2080833;28;19921;-63
2022/04/01 07:06:59;;;;;;;;;;;;;;;-143.90;100.00;55341.56;2084448;28;19923;-62
2022/04/01 07:08:21;;;;;;;;;;;;;;;-143.90;100.00;55329.63;2086397;28;20441;-62
2022/04/01 07:09:42;;;;;;;;;;;;;;;-143.90;100.00;55327.66;2084399;28;19928;-64
2022/04/01 07:11:02;;;;;;;;;;;;;;;-143.90;100.00;55333.63;2086105;28;19948;-62
2022/04/01 07:12:23;;;;;;;;;;;;;;;-143.90;100.00;55329.63;2085042;28;19928;-61